首页
METAR-TAF:

METAR-TAF

机场 :

塔那那利佛, 马达加斯加

塔那那利佛/伊瓦图国际机场

纬度: 18-48S, 经度: 047-29E, 海拔: 1279米

当前天气观测

该预报发布于26分钟前的17:30 UTC
风速6节,风向东南,在之间变化
温度 18°C
湿度 83%
气压 1021 hPa
能见度10公里或以上
少量云层高于1700英尺

METAR: FMMI 241730Z 14006KT 100V170 9999 FEW017 18/15 Q1021 NOSIG

时间: 20:56 (17:56 UTC)

预报

该预报发布于56分钟前的17:00 UTC
预报有效从24日的 18点(UTC)到 25日的 24点(UTC)
风速8节,风向东南
能见度10公里或以上
散云层高于2000英尺
几率 30%
从 25日的 02点(UTC)到 25日的 05点(UTC)
能見度: 2000
轻雾

TAF: FMMI 241700Z 2418/2524 14008KT 9999 SCT020 PROB30 2502/2505 2000 BR

超过4000个机场的气象观测和天气预报(METAR&TAF报告)。

可查询的气象台以黄色和红色小点在地图上表示。

将鼠标移到小点上方,可查看气象台名称。

然后点击查看天气观测和预报。

如需切换地图:点击带黑十字的绿色按钮放大地图;点击带横线的绿色按钮缩小地图;或者点击绿色箭头查看邻近地区的地图。


METAR-TAF: